Time;durP1;ratioP1;P1;durP2;ratioP2;P2;SDS_P1;SDS_P2;PMS_P1;PMS_P2;Temp;Humidity;BMP_temperature;BMP_pressure;BME280_temperature;BME280_humidity;BME280_pressure;Samples;Min_cycle;Max_cycle;Signal;HPM_P1;HPM_P2
2021/10/28 00:13:54;;;;;;;10.13;3.75;;;14.50;91.40;;;;;;5049748;28;20040;-83
2021/10/28 00:16:28;;;;;;;9.75;3.90;;;14.50;91.40;;;;;;5048039;28;20029;-82
2021/10/28 00:19:00;;;;;;;10.85;3.80;;;14.50;91.30;;;;;;5048168;28;20028;-84
2021/10/28 00:21:34;;;;;;;9.18;3.65;;;14.40;91.40;;;;;;5049328;28;20096;-82
2021/10/28 00:24:03;;;;;;;8.25;3.72;;;14.40;91.30;;;;;;5047993;28;20862;-84
2021/10/28 00:26:29;;;;;;;7.78;3.85;;;14.50;91.40;;;;;;5048029;28;20021;-83
2021/10/28 00:29:00;;;;;;;10.98;3.53;;;14.50;91.30;;;;;;5047970;28;20136;-83
2021/10/28 00:31:27;;;;;;;8.52;3.70;;;14.50;91.40;;;;;;5049291;28;20021;-84
2021/10/28 00:33:54;;;;;;;9.70;4.10;;;14.50;91.40;;;;;;5047923;28;20376;-82
2021/10/28 00:36:19;;;;;;;8.23;3.70;;;14.40;91.60;;;;;;5048054;28;20028;-84
2021/10/28 00:38:45;;;;;;;8.43;3.80;;;14.50;91.30;;;;;;5049060;28;20542;-81
2021/10/28 00:41:11;;;;;;;12.45;3.60;;;14.50;91.30;;;;;;5047975;28;20136;-83
2021/10/28 00:44:04;;;;;;;8.18;3.95;;;14.40;91.40;;;;;;5047480;28;20319;-81
2021/10/28 00:46:32;;;;;;;9.38;3.70;;;14.50;91.40;;;;;;5047623;28;20064;-84
2021/10/28 00:48:59;;;;;;;8.77;3.30;;;14.50;91.40;;;;;;5047615;28;20021;-84
2021/10/28 00:51:28;;;;;;;10.20;3.60;;;14.40;91.30;;;;;;5047730;28;20029;-82
2021/10/28 00:53:56;;;;;;;9.73;3.78;;;14.50;91.30;;;;;;5047871;28;20020;-84
2021/10/28 00:56:24;;;;;;;6.82;3.63;;;14.50;91.30;;;;;;5047652;28;20059;-82
2021/10/28 00:58:50;;;;;;;8.73;3.92;;;14.40;91.20;;;;;;5047523;28;20031;-83
2021/10/28 01:01:16;;;;;;;8.32;3.90;;;14.50;91.20;;;;;;5047432;28;20024;-83
2021/10/28 01:03:43;;;;;;;5.93;3.47;;;14.50;91.10;;;;;;5047767;28;20500;-84
2021/10/28 01:06:10;;;;;;;6.47;3.47;;;14.50;91.10;;;;;;5048038;28;20048;-83
2021/10/28 01:08:38;;;;;;;6.15;3.30;;;14.50;91.10;;;;;;5047963;28;20025;-81
2021/10/28 01:11:08;;;;;;;8.98;3.60;;;14.50;91.00;;;;;;5051782;28;20020;-83
2021/10/28 01:13:34;;;;;;;7.55;3.60;;;14.50;91.00;;;;;;5051436;28;20058;-84
2021/10/28 01:16:00;;;;;;;9.18;3.90;;;14.50;90.90;;;;;;5051553;28;20498;-82
2021/10/28 01:18:28;;;;;;;9.80;3.75;;;14.50;90.90;;;;;;5051508;28;20051;-83
2021/10/28 01:20:55;;;;;;;7.28;3.80;;;14.50;90.90;;;;;;5052701;28;20021;-84
2021/10/28 01:23:23;;;;;;;6.57;3.35;;;14.60;90.90;;;;;;5051197;28;20025;-81
2021/10/28 01:25:54;;;;;;;6.75;3.45;;;14.60;91.10;;;;;;5051413;28;20031;-83
2021/10/28 01:28:22;;;;;;;6.88;3.58;;;14.50;90.90;;;;;;5051221;28;20067;-84
2021/10/28 01:30:51;;;;;;;7.15;3.58;;;14.60;90.90;;;;;;5051361;28;20381;-83
2021/10/28 01:33:17;;;;;;;7.65;3.70;;;14.50;90.90;;;;;;5052328;28;20033;-82
2021/10/28 01:35:44;;;;;;;7.90;3.75;;;14.50;91.00;;;;;;5050719;28;20048;-83
2021/10/28 01:38:11;;;;;;;6.32;3.58;;;14.50;91.10;;;;;;5051233;28;20028;-83
2021/10/28 01:40:38;;;;;;;7.70;3.90;;;14.50;91.10;;;;;;5051923;28;20032;-82
2021/10/28 01:43:03;;;;;;;6.80;3.90;;;14.50;91.10;;;;;;5050970;28;20537;-84
2021/10/28 01:45:29;;;;;;;7.38;4.05;;;14.50;91.10;;;;;;5051175;28;20037;-83
2021/10/28 01:47:55;;;;;;;8.15;4.30;;;14.40;91.20;;;;;;5052029;28;20098;-83
2021/10/28 01:50:20;;;;;;;7.80;3.92;;;14.40;91.20;;;;;;5050923;28;20036;-79
2021/10/28 01:52:46;;;;;;;7.60;3.78;;;14.40;91.20;;;;;;5050678;28;20048;-84
2021/10/28 01:55:13;;;;;;;8.93;3.80;;;14.50;91.30;;;;;;5050972;28;20061;-83
2021/10/28 01:57:39;;;;;;;8.20;4.40;;;14.40;91.20;;;;;;5052390;28;20390;-83
2021/10/28 02:00:16;;;;;;;8.25;3.85;;;14.40;91.20;;;;;;5050428;28;20090;-81
2021/10/28 02:02:45;;;;;;;7.93;3.72;;;14.40;91.30;;;;;;5051280;28;20104;-83
2021/10/28 02:05:14;;;;;;;6.32;3.75;;;14.40;91.30;;;;;;5051985;28;20393;-83
2021/10/28 02:07:40;;;;;;;8.30;3.92;;;14.40;91.30;;;;;;5050240;28;20032;-83
2021/10/28 02:10:08;;;;;;;6.78;3.92;;;14.40;91.20;;;;;;5050623;28;20033;-83
2021/10/28 02:12:35;;;;;;;6.63;3.65;;;14.40;91.20;;;;;;5050643;28;20083;-84
2021/10/28 02:15:01;;;;;;;7.28;3.60;;;14.40;91.20;;;;;;5051578;28;20061;-81
2021/10/28 02:17:27;;;;;;;6.93;3.95;;;14.40;91.20;;;;;;5050564;28;20470;-85
2021/10/28 02:19:52;;;;;;;7.60;4.00;;;14.40;91.20;;;;;;5049973;28;20033;-80
2021/10/28 02:22:18;;;;;;;6.72;4.03;;;14.40;91.10;;;;;;5051157;28;20036;-83
2021/10/28 02:24:44;;;;;;;8.30;4.40;;;14.40;91.20;;;;;;5051546;28;20029;-83
2021/10/28 02:27:09;;;;;;;7.70;4.20;;;14.40;91.30;;;;;;5050263;28;20029;-84
2021/10/28 02:29:35;;;;;;;7.10;3.63;;;14.40;91.20;;;;;;5051272;28;20041;-81
2021/10/28 02:32:01;;;;;;;7.32;4.40;;;14.30;91.10;;;;;;5051350;28;20086;-84
2021/10/28 02:34:27;;;;;;;6.95;4.15;;;14.40;91.20;;;;;;5049718;28;20045;-80
2021/10/28 02:36:53;;;;;;;6.45;3.83;;;14.40;91.20;;;;;;5049878;28;20453;-82
2021/10/28 02:39:18;;;;;;;9.02;3.97;;;14.40;91.10;;;;;;5049648;28;20053;-82
2021/10/28 02:41:44;;;;;;;7.13;3.75;;;14.40;91.20;;;;;;5051026;28;20076;-84
2021/10/28 02:44:10;;;;;;;7.88;4.30;;;14.40;91.10;;;;;;5049888;28;20013;-84
2021/10/28 02:46:36;;;;;;;9.50;4.28;;;14.40;91.10;;;;;;5049897;28;20143;-83
2021/10/28 02:49:03;;;;;;;9.73;4.45;;;14.40;91.10;;;;;;5049629;28;20186;-83
2021/10/28 02:51:29;;;;;;;8.38;4.25;;;14.40;91.10;;;;;;5047723;28;20033;-84
2021/10/28 02:53:54;;;;;;;6.65;4.25;;;14.40;91.10;;;;;;5049490;28;20135;-80
2021/10/28 02:56:20;;;;;;;8.77;4.07;;;14.40;91.10;;;;;;5049533;28;20501;-83
2021/10/28 02:58:45;;;;;;;7.53;4.18;;;14.40;91.10;;;;;;5049671;28;20033;-83
2021/10/28 03:01:11;;;;;;;8.35;3.92;;;14.40;91.10;;;;;;5049806;28;20079;-83
2021/10/28 03:03:38;;;;;;;6.85;3.97;;;14.40;91.10;;;;;;5049802;28;20068;-84
2021/10/28 03:06:06;;;;;;;6.25;3.65;;;14.40;91.10;;;;;;5050754;28;20032;-83
2021/10/28 03:08:32;;;;;;;7.88;4.00;;;14.40;91.10;;;;;;5049075;28;20029;-83
2021/10/28 03:10:58;;;;;;;7.10;4.10;;;14.40;91.10;;;;;;5049701;28;20079;-83
2021/10/28 03:13:24;;;;;;;8.02;4.45;;;14.40;91.10;;;;;;5048945;28;20075;-83
2021/10/28 03:15:52;;;;;;;7.97;4.90;;;14.40;91.00;;;;;;5049308;28;20040;-83
2021/10/28 03:26:30;;;;;;;6.88;3.85;;;14.40;91.00;;;;;;5050721;28;20048;-83
2021/10/28 03:28:56;;;;;;;6.80;4.20;;;14.40;91.00;;;;;;5048801;28;20020;-81
2021/10/28 03:31:21;;;;;;;8.75;4.63;;;14.40;91.00;;;;;;5049098;28;20035;-82
2021/10/28 03:33:49;;;;;;;6.53;3.80;;;14.40;91.00;;;;;;5048039;28;20398;-80
2021/10/28 03:36:26;;;;;;;7.50;4.57;;;14.40;91.00;;;;;;5049902;28;20021;-84
2021/10/28 03:39:41;;;;;;;8.52;4.47;;;14.30;90.80;;;;;;5048484;28;20675;-83
2021/10/28 03:53:03;;;;;;;7.72;4.35;;;14.40;90.60;;;;;;5049982;28;20067;-85
2021/10/28 04:06:17;;;;;;;7.28;4.30;;;14.40;90.50;;;;;;5049966;28;20478;-83
2021/10/28 04:19:46;;;;;;;8.07;4.30;;;14.40;90.60;;;;;;5049883;28;20040;-83
2021/10/28 04:30:24;;;;;;;7.00;4.30;;;14.40;90.80;;;;;;5049085;28;20474;-83
2021/10/28 04:32:51;;;;;;;8.77;4.75;;;14.40;90.70;;;;;;5047912;28;20032;-83
2021/10/28 04:35:17;;;;;;;7.75;4.10;;;14.20;90.80;;;;;;5048682;28;20048;-83
2021/10/28 04:37:45;;;;;;;9.55;4.13;;;14.30;90.90;;;;;;5048006;28;20028;-80
2021/10/28 04:40:12;;;;;;;8.02;4.50;;;14.30;90.90;;;;;;5049036;28;20052;-81
2021/10/28 04:42:37;;;;;;;7.55;3.60;;;14.30;90.90;;;;;;5049225;28;20037;-81
2021/10/28 04:45:04;;;;;;;7.90;4.30;;;14.30;90.90;;;;;;5052259;28;20040;-82
2021/10/28 04:47:30;;;;;;;9.55;4.32;;;14.30;90.90;;;;;;5052407;28;20025;-83
2021/10/28 04:49:56;;;;;;;8.43;4.38;;;14.30;91.00;;;;;;5050833;28;20405;-80
2021/10/28 04:52:22;;;;;;;9.13;4.60;;;14.50;91.00;;;;;;5041438;28;20040;-82
2021/10/28 04:54:48;;;;;;;7.68;4.22;;;14.30;91.00;;;;;;5050760;28;20445;-79
2021/10/28 04:57:14;;;;;;;9.30;4.05;;;14.30;91.00;;;;;;5050843;28;20044;-82
2021/10/28 04:59:39;;;;;;;10.38;4.30;;;14.30;91.00;;;;;;5051034;28;20111;-85
2021/10/28 05:02:05;;;;;;;8.25;4.00;;;14.30;91.00;;;;;;5050638;28;20036;-83
2021/10/28 05:04:31;;;;;;;8.07;4.18;;;14.30;91.00;;;;;;5049400;28;20026;-80
2021/10/28 05:06:56;;;;;;;8.25;4.13;;;14.40;91.00;;;;;;5050396;28;20033;-84
2021/10/28 05:09:33;;;;;;;6.97;4.28;;;14.30;91.00;;;;;;5052370;28;20018;-80
2021/10/28 05:11:59;;;;;;;8.50;3.90;;;14.30;91.00;;;;;;5051846;28;20315;-86
2021/10/28 05:14:26;;;;;;;7.35;4.28;;;14.30;91.00;;;;;;5050904;28;20025;-83
2021/10/28 05:16:56;;;;;;;7.80;4.22;;;14.30;91.00;;;;;;5052254;28;20025;-85
2021/10/28 05:19:23;;;;;;;7.72;4.10;;;14.30;91.00;;;;;;5052166;28;20402;-84
2021/10/28 05:21:48;;;;;;;7.85;4.05;;;14.30;91.00;;;;;;5051127;28;20021;-83
2021/10/28 05:24:14;;;;;;;7.50;4.10;;;14.30;90.90;;;;;;5050798;28;20067;-81
2021/10/28 05:26:39;;;;;;;7.85;4.13;;;14.30;90.90;;;;;;5051924;28;20021;-84
2021/10/28 05:29:05;;;;;;;10.38;3.90;;;14.40;90.80;;;;;;5052932;28;20131;-83
2021/10/28 05:31:30;;;;;;;8.85;4.28;;;14.40;90.90;;;;;;5051817;28;20033;-82
2021/10/28 05:33:56;;;;;;;6.78;3.85;;;14.40;90.90;;;;;;5052512;28;20028;-83
2021/10/28 05:36:22;;;;;;;10.70;4.20;;;14.40;91.00;;;;;;5052163;28;20028;-81
2021/10/28 05:38:47;;;;;;;8.15;4.00;;;14.30;90.90;;;;;;5051188;28;20052;-81
2021/10/28 05:41:13;;;;;;;11.82;4.60;;;14.30;90.90;;;;;;5052176;28;20043;-81
2021/10/28 05:43:38;;;;;;;8.73;4.65;;;14.30;90.80;;;;;;5050973;28;20044;-80
2021/10/28 05:46:04;;;;;;;9.38;4.80;;;14.30;91.10;;;;;;5050684;28;20385;-81
2021/10/28 05:48:30;;;;;;;9.88;4.70;;;14.30;90.90;;;;;;5104025;22;20132;-76
2021/10/28 05:50:56;;;;;;;9.38;4.50;;;14.40;90.90;;;;;;5049954;28;20021;-77
2021/10/28 05:53:22;;;;;;;8.05;4.40;;;14.30;90.90;;;;;;5049600;28;20037;-76
2021/10/28 05:55:49;;;;;;;11.20;4.53;;;14.30;90.80;;;;;;5050035;28;20325;-77
2021/10/28 05:58:15;;;;;;;9.05;4.63;;;14.30;90.90;;;;;;5054742;28;20067;-77
2021/10/28 06:00:40;;;;;;;10.00;4.40;;;14.30;90.90;;;;;;5053371;28;20083;-77
2021/10/28 06:03:06;;;;;;;9.25;4.78;;;14.30;90.80;;;;;;5053369;28;20029;-77
2021/10/28 06:05:31;;;;;;;9.10;4.47;;;14.30;90.80;;;;;;5053368;28;20421;-76
2021/10/28 06:07:57;;;;;;;10.63;4.80;;;14.30;90.90;;;;;;5053210;28;20056;-77
2021/10/28 06:10:22;;;;;;;9.80;4.30;;;14.30;90.80;;;;;;5054099;28;20027;-77
2021/10/28 06:12:51;;;;;;;9.73;4.82;;;14.30;90.80;;;;;;5053139;28;20060;-76
2021/10/28 06:15:17;;;;;;;8.82;4.70;;;14.30;90.80;;;;;;5053138;28;20474;-76
2021/10/28 06:18:10;;;;;;;9.68;4.95;;;14.30;90.80;;;;;;5054352;28;20033;-76
2021/10/28 06:20:36;;;;;;;8.90;5.07;;;14.30;90.70;;;;;;5054087;28;20013;-77
2021/10/28 06:23:02;;;;;;;7.95;4.68;;;14.40;90.70;;;;;;5053024;28;20116;-76
2021/10/28 06:25:27;;;;;;;7.28;4.50;;;14.40;90.60;;;;;;5052962;28;20075;-76
2021/10/28 06:27:53;;;;;;;8.35;4.65;;;14.40;90.60;;;;;;5052805;28;20064;-77
2021/10/28 06:30:18;;;;;;;8.13;5.05;;;14.40;90.50;;;;;;5052687;28;20031;-77
2021/10/28 06:33:00;;;;;;;8.30;4.88;;;14.40;90.50;;;;;;5052929;28;20029;-77
2021/10/28 06:35:26;;;;;;;7.25;4.60;;;14.50;90.40;;;;;;5052843;28;20398;-77
2021/10/28 06:37:52;;;;;;;8.43;4.88;;;14.50;90.30;;;;;;5052671;28;20028;-77
2021/10/28 06:40:20;;;;;;;7.78;4.57;;;14.50;90.20;;;;;;5052340;28;20029;-77
2021/10/28 06:42:47;;;;;;;9.32;5.22;;;14.50;90.20;;;;;;5053734;28;20025;-77
2021/10/28 06:45:13;;;;;;;8.05;5.15;;;14.60;90.10;;;;;;5053821;28;20017;-77
2021/10/28 06:47:40;;;;;;;9.30;5.38;;;14.60;90.10;;;;;;5052421;28;20090;-76
2021/10/28 06:50:10;;;;;;;8.68;5.13;;;14.60;90.00;;;;;;5052323;28;20025;-76
2021/10/28 06:52:51;;;;;;;8.25;5.13;;;14.60;89.90;;;;;;5053496;28;20059;-77
2021/10/28 07:03:32;;;;;;;8.30;5.10;;;14.70;89.80;;;;;;5053709;28;20448;-77
2021/10/28 07:06:10;;;;;;;8.50;5.40;;;14.70;89.70;;;;;;5053344;28;20017;-76
2021/10/28 07:08:38;;;;;;;8.73;6.05;;;14.70;89.50;;;;;;5051828;28;20454;-76
2021/10/28 07:11:09;;;;;;;9.50;5.55;;;14.80;89.30;;;;;;5053308;28;20429;-77
2021/10/28 07:13:36;;;;;;;8.98;5.50;;;14.80;89.10;;;;;;5051805;28;20502;-76
2021/10/28 07:16:13;;;;;;;8.95;5.60;;;14.80;89.00;;;;;;5052150;28;20024;-77
2021/10/28 07:21:32;;;;;;;9.55;5.57;;;14.90;88.80;;;;;;5053304;28;20443;-77
2021/10/28 07:24:22;;;;;;;8.90;6.00;;;14.90;88.70;;;;;;5053043;28;20513;-76
2021/10/28 08:15:42;;;;;;;10.00;7.43;;;15.30;87.10;;;;;;5052692;28;20036;-77
2021/10/28 08:20:45;;;;;;;9.68;6.95;;;15.30;86.80;;;;;;5051834;28;20129;-76
2021/10/28 08:28:46;;;;;;;9.15;7.45;;;15.40;86.70;;;;;;5051887;28;20044;-76
2021/10/28 08:31:15;;;;;;;10.93;7.70;;;15.40;86.60;;;;;;5052001;28;20032;-77
2021/10/28 08:33:40;;;;;;;9.55;7.70;;;15.50;86.60;;;;;;5050637;28;20152;-76
2021/10/28 08:36:21;;;;;;;11.02;7.90;;;15.50;86.60;;;;;;5050737;28;20112;-77
2021/10/28 08:38:46;;;;;;;11.02;7.82;;;15.50;86.40;;;;;;5050205;28;20056;-77
2021/10/28 08:41:13;;;;;;;10.68;7.75;;;15.50;86.40;;;;;;5050680;28;20057;-76
2021/10/28 08:43:44;;;;;;;9.85;7.60;;;15.50;86.30;;;;;;5051892;28;20509;-76
2021/10/28 08:46:11;;;;;;;11.13;7.45;;;15.60;86.30;;;;;;5050540;28;20452;-77
2021/10/28 08:48:41;;;;;;;10.30;7.75;;;15.60;86.20;;;;;;5051292;28;20300;-77
2021/10/28 08:51:10;;;;;;;9.90;7.78;;;15.60;86.10;;;;;;5050316;28;20496;-76
2021/10/28 08:56:08;;;;;;;10.10;7.75;;;15.70;86.10;;;;;;5051830;28;20117;-77
2021/10/28 09:29:17;;;;;;;9.70;7.40;;;16.00;84.70;;;;;;5051295;28;20449;-77
2021/10/28 09:32:00;;;;;;;10.13;7.55;;;16.00;84.60;;;;;;5052643;28;20561;-77
2021/10/28 09:45:54;;;;;;;9.98;7.18;;;15.90;84.90;;;;;;5055512;28;20028;-77
2021/10/28 09:51:05;;;;;;;10.45;7.13;;;15.90;85.00;;;;;;5054800;28;20025;-78
2021/10/28 09:53:56;;;;;;;8.43;6.78;;;15.90;85.00;;;;;;5054744;28;20025;-77
2021/10/28 09:59:42;;;;;;;9.60;6.93;;;15.80;85.10;;;;;;5054518;28;20452;-76
2021/10/28 10:02:42;;;;;;;10.18;7.40;;;15.90;85.30;;;;;;5053342;28;20114;-77
2021/10/28 10:05:26;;;;;;;10.57;7.80;;;15.90;85.20;;;;;;5054554;28;20036;-76
2021/10/28 10:07:56;;;;;;;10.38;7.05;;;15.90;85.30;;;;;;5053192;28;20029;-77
2021/10/28 10:10:29;;;;;;;10.00;6.45;;;15.90;85.30;;;;;;5052940;28;20545;-77
2021/10/28 10:12:56;;;;;;;9.70;6.88;;;15.90;85.30;;;;;;5053189;28;20056;-77
2021/10/28 10:15:22;;;;;;;10.38;7.38;;;15.90;85.30;;;;;;5054169;28;20052;-78
2021/10/28 10:17:50;;;;;;;9.07;6.80;;;15.90;85.20;;;;;;5052977;28;20017;-77
2021/10/28 10:20:18;;;;;;;9.45;6.88;;;15.90;85.20;;;;;;5052839;28;20108;-77
2021/10/28 10:22:54;;;;;;;9.13;6.40;;;15.90;85.10;;;;;;5053123;28;20086;-77
2021/10/28 11:26:57;;;;;;;8.10;5.55;;;16.10;84.70;;;;;;5053314;28;20083;-76
2021/10/28 11:32:15;;;;;;;6.88;4.93;;;16.10;84.70;;;;;;5052949;28;20028;-76
2021/10/28 12:16:35;;;;;;;6.60;4.32;;;16.30;83.70;;;;;;5052490;28;20036;-77
2021/10/28 12:22:17;;;;;;;7.47;4.40;;;16.30;83.50;;;;;;5052418;28;20082;-76
2021/10/28 12:53:41;;;;;;;6.40;3.60;;;16.20;84.60;;;;;;5051817;28;20061;-76
2021/10/28 13:35:46;;;;;;;5.05;2.95;;;16.00;85.70;;;;;;5056647;28;20035;-78
2021/10/28 13:38:25;;;;;;;6.13;3.10;;;16.00;85.50;;;;;;5057624;28;20032;-77
2021/10/28 13:52:11;;;;;;;7.53;2.97;;;16.00;84.80;;;;;;5056436;28;20154;-77
2021/10/28 14:19:13;;;;;;;8.65;2.72;;;15.90;84.80;;;;;;5054128;28;20052;-78
2021/10/28 15:00:14;;;;;;;6.75;2.30;;;15.80;85.90;;;;;;5053486;28;20082;-77
2021/10/28 15:29:48;;;;;;;5.20;2.40;;;15.50;87.80;;;;;;5052825;28;20071;-77
2021/10/28 15:37:43;;;;;;;4.93;1.80;;;15.50;88.10;;;;;;5053116;28;20475;-77
2021/10/28 15:40:20;;;;;;;5.05;2.30;;;15.50;88.20;;;;;;5052642;28;20017;-77
2021/10/28 15:49:31;;;;;;;4.97;2.17;;;15.40;88.20;;;;;;5050154;28;20524;-76
2021/10/28 16:00:00;;;;;;;6.85;2.03;;;15.40;88.50;;;;;;5052125;28;20496;-77
2021/10/28 16:24:21;;;;;;;4.00;2.30;;;15.30;88.60;;;;;;5052119;28;20071;-77
2021/10/28 16:26:48;;;;;;;4.63;2.08;;;15.30;88.60;;;;;;5050875;28;20028;-77
2021/10/28 16:29:13;;;;;;;4.78;2.10;;;15.30;88.50;;;;;;5050477;28;20021;-76
2021/10/28 16:31:41;;;;;;;5.32;2.30;;;15.30;88.40;;;;;;5052043;28;20368;-77
2021/10/28 16:34:08;;;;;;;4.68;2.00;;;15.30;88.40;;;;;;5050568;28;20107;-77
2021/10/28 16:36:33;;;;;;;4.25;2.05;;;15.30;88.40;;;;;;5050766;28;20497;-77
2021/10/28 16:39:03;;;;;;;4.45;2.40;;;15.30;88.40;;;;;;5051298;28;20029;-77
2021/10/28 16:41:28;;;;;;;4.22;2.00;;;15.20;88.30;;;;;;5050550;28;20120;-77
2021/10/28 16:43:54;;;;;;;5.43;2.20;;;15.30;88.30;;;;;;5050728;28;20120;-76
2021/10/28 16:46:20;;;;;;;4.70;2.20;;;15.20;88.20;;;;;;5050548;28;20478;-76
2021/10/28 16:48:45;;;;;;;4.70;2.15;;;15.30;88.20;;;;;;5050363;28;20119;-76
2021/10/28 16:51:11;;;;;;;7.80;2.85;;;15.30;88.30;;;;;;5050822;28;20029;-76
2021/10/28 16:53:37;;;;;;;5.68;2.58;;;15.30;87.90;;;;;;5050376;28;20029;-77
2021/10/28 16:56:04;;;;;;;5.28;2.50;;;15.30;87.70;;;;;;5052512;28;20021;-75
2021/10/28 16:58:29;;;;;;;6.35;2.75;;;15.30;86.60;;;;;;5052076;28;20025;-76
2021/10/28 17:00:55;;;;;;;7.50;3.25;;;15.30;84.10;;;;;;5052078;28;20440;-74
2021/10/28 17:03:21;;;;;;;9.30;3.13;;;15.20;83.00;;;;;;5050788;28;20103;-75
2021/10/28 17:05:48;;;;;;;13.57;3.33;;;15.30;83.20;;;;;;5050614;28;20116;-76
2021/10/28 17:08:14;;;;;;;6.43;3.05;;;15.30;84.00;;;;;;5051990;28;20017;-76
2021/10/28 17:10:40;;;;;;;10.25;3.28;;;15.30;83.00;;;;;;5050218;28;20506;-76
2021/10/28 17:13:06;;;;;;;10.20;3.00;;;15.30;83.10;;;;;;5051840;28;20029;-76
2021/10/28 17:15:31;;;;;;;7.65;3.08;;;15.30;83.50;;;;;;5051309;28;20025;-76
2021/10/28 17:17:57;;;;;;;7.88;3.10;;;15.30;84.10;;;;;;5049067;28;20028;-76
2021/10/28 17:20:22;;;;;;;8.32;3.20;;;15.30;84.40;;;;;;5038886;28;20018;-77
2021/10/28 17:22:49;;;;;;;8.20;3.25;;;15.30;84.90;;;;;;5031785;28;20029;-77
2021/10/28 17:25:20;;;;;;;7.20;3.30;;;15.30;85.20;;;;;;5037239;28;20051;-77
2021/10/28 17:27:46;;;;;;;5.47;3.00;;;15.40;85.70;;;;;;5033730;28;20033;-78
2021/10/28 17:30:14;;;;;;;7.80;3.45;;;15.30;86.20;;;;;;5043319;28;20452;-78
2021/10/28 17:32:42;;;;;;;6.03;3.30;;;15.40;86.20;;;;;;5054228;28;20426;-77
2021/10/28 17:35:08;;;;;;;8.18;3.58;;;15.30;86.80;;;;;;5053414;28;20672;-78
2021/10/28 17:37:34;;;;;;;7.13;3.45;;;15.30;87.00;;;;;;5052476;28;20033;-78
2021/10/28 17:39:59;;;;;;;7.10;3.22;;;15.30;87.30;;;;;;5045293;28;20040;-78
2021/10/28 17:42:25;;;;;;;8.32;3.60;;;15.30;87.40;;;;;;5054304;28;20029;-77
2021/10/28 17:44:56;;;;;;;6.85;3.30;;;15.40;87.80;;;;;;5053615;28;20021;-78
2021/10/28 17:47:25;;;;;;;6.63;3.50;;;15.40;87.90;;;;;;5054285;28;20439;-78
2021/10/28 17:49:52;;;;;;;7.15;3.60;;;15.40;88.20;;;;;;5051623;28;20033;-78
2021/10/28 17:52:18;;;;;;;7.35;4.15;;;15.40;88.50;;;;;;5039434;28;20049;-77
2021/10/28 17:54:44;;;;;;;8.02;3.60;;;15.40;88.70;;;;;;5034904;28;20025;-79
2021/10/28 17:57:12;;;;;;;7.57;4.00;;;15.50;89.00;;;;;;5065977;22;20502;-80
2021/10/28 17:59:37;;;;;;;9.93;3.47;;;15.50;88.90;;;;;;5053233;28;20155;-81
2021/10/28 18:02:03;;;;;;;8.55;3.95;;;15.60;88.70;;;;;;5054381;28;20490;-80
2021/10/28 18:04:29;;;;;;;7.20;4.03;;;15.60;88.50;;;;;;5054065;28;20029;-82
2021/10/28 18:06:55;;;;;;;6.93;3.92;;;15.70;88.40;;;;;;5053503;28;20028;-80
2021/10/28 18:09:23;;;;;;;7.80;4.25;;;15.70;88.00;;;;;;5053469;28;20100;-80
2021/10/28 18:11:50;;;;;;;8.18;4.15;;;15.80;87.80;;;;;;5055235;28;20044;-81
2021/10/28 18:14:17;;;;;;;10.45;4.38;;;15.80;87.40;;;;;;5053651;28;20487;-80
2021/10/28 18:16:43;;;;;;;9.82;4.10;;;15.90;87.20;;;;;;5053892;28;20025;-80
2021/10/28 18:19:09;;;;;;;6.97;4.07;;;15.90;86.70;;;;;;5053798;28;20505;-80
2021/10/28 18:21:37;;;;;;;7.07;4.50;;;16.00;86.50;;;;;;5053860;28;20040;-81
2021/10/28 18:24:04;;;;;;;8.25;4.35;;;15.90;87.10;;;;;;5055004;28;20053;-81
2021/10/28 18:26:30;;;;;;;9.60;4.40;;;15.80;86.80;;;;;;5053733;28;20025;-80
2021/10/28 18:28:56;;;;;;;7.28;4.30;;;15.80;86.70;;;;;;5054753;28;20025;-81
2021/10/28 18:31:23;;;;;;;7.93;4.50;;;15.70;86.80;;;;;;5054402;28;20502;-80
2021/10/28 18:33:49;;;;;;;7.70;4.40;;;15.70;86.90;;;;;;5053357;28;20029;-80
2021/10/28 18:36:16;;;;;;;9.10;4.60;;;15.60;86.70;;;;;;5053415;28;20044;-80
2021/10/28 18:38:45;;;;;;;7.93;4.68;;;15.60;86.80;;;;;;5053260;28;20031;-80
2021/10/28 18:41:11;;;;;;;7.05;4.70;;;15.60;86.70;;;;;;5054434;28;20017;-80
2021/10/28 18:43:37;;;;;;;8.63;4.55;;;15.60;86.70;;;;;;5053353;28;20025;-81
2021/10/28 18:46:02;;;;;;;8.35;4.70;;;15.50;86.60;;;;;;5053530;28;20464;-80
2021/10/28 18:48:28;;;;;;;7.40;4.40;;;15.50;86.70;;;;;;5050639;28;20135;-78
2021/10/28 18:50:54;;;;;;;9.43;5.00;;;15.50;86.50;;;;;;5053153;28;20144;-80
2021/10/28 18:53:21;;;;;;;6.72;4.60;;;15.50;86.70;;;;;;5053070;28;20021;-81
2021/10/28 18:55:46;;;;;;;7.53;5.32;;;15.50;86.60;;;;;;5054513;28;20028;-80
2021/10/28 18:58:12;;;;;;;7.43;5.18;;;15.50;86.50;;;;;;5052702;28;20032;-80
2021/10/28 19:00:38;;;;;;;8.07;5.40;;;15.50;86.30;;;;;;5052751;28;20025;-80
2021/10/28 19:03:04;;;;;;;7.80;5.40;;;15.50;85.90;;;;;;5054144;28;20068;-77
2021/10/28 19:05:29;;;;;;;8.55;5.72;;;15.50;85.90;;;;;;5051168;28;20025;-84
2021/10/28 19:07:56;;;;;;;9.18;5.90;;;15.50;85.00;;;;;;5073890;28;20032;-81
2021/10/28 19:10:22;;;;;;;12.52;5.70;;;15.50;84.60;;;;;;5072465;28;20021;-80
2021/10/28 19:12:48;;;;;;;10.32;5.63;;;15.50;84.60;;;;;;5073889;28;20161;-80
2021/10/28 19:15:15;;;;;;;13.57;6.00;;;15.60;84.60;;;;;;5072531;28;20066;-80
2021/10/28 19:17:45;;;;;;;17.13;6.70;;;15.50;84.40;;;;;;5072674;28;20028;-80
2021/10/28 19:20:11;;;;;;;10.82;6.13;;;15.50;84.30;;;;;;5072510;28;20097;-80
2021/10/28 19:22:37;;;;;;;12.00;6.45;;;15.50;84.30;;;;;;5073829;28;20033;-81
2021/10/28 19:25:04;;;;;;;11.27;6.65;;;15.50;84.10;;;;;;5072528;28;20035;-80
2021/10/28 19:27:30;;;;;;;12.55;5.85;;;15.50;84.00;;;;;;5072300;28;20070;-80
2021/10/28 19:30:02;;;;;;;10.35;5.90;;;15.50;84.00;;;;;;5072157;28;20393;-80
2021/10/28 19:32:28;;;;;;;;;;;15.50;84.00;;;;;;5072620;28;20041;-81
2021/10/28 19:34:55;;;;;;;11.70;6.47;;;15.50;84.00;;;;;;5073384;28;20394;-81
2021/10/28 19:37:36;;;;;;;8.88;6.28;;;15.50;84.10;;;;;;5073541;28;20074;-80
2021/10/28 19:47:56;;;;;;;10.52;6.70;;;15.30;85.20;;;;;;5018621;28;20081;-79
2021/10/28 19:50:23;;;;;;;10.85;7.10;;;15.30;85.70;;;;;;5073101;28;20489;-79
2021/10/28 19:52:48;;;;;;;10.57;6.63;;;15.20;85.60;;;;;;5073060;28;20032;-79
2021/10/28 19:55:15;;;;;;;11.10;7.55;;;15.20;85.60;;;;;;5071885;28;20032;-81
2021/10/28 19:57:48;;;;;;;11.02;7.75;;;15.20;85.70;;;;;;5071818;28;20028;-79
2021/10/28 20:00:26;;;;;;;11.05;7.95;;;15.20;85.40;;;;;;5072868;28;20047;-79
2021/10/28 20:05:42;;;;;;;11.82;7.57;;;15.10;84.50;;;;;;5073156;28;20028;-79
2021/10/28 20:13:53;;;;;;;16.83;8.27;;;15.30;84.60;;;;;;5072982;28;20035;-80
2021/10/28 20:21:54;;;;;;;13.40;8.60;;;15.30;84.40;;;;;;5073071;28;20118;-79
2021/10/28 20:24:21;;;;;;;13.48;8.73;;;15.30;84.60;;;;;;5071459;28;20024;-79
2021/10/28 20:26:46;;;;;;;13.65;7.90;;;15.30;84.40;;;;;;5072483;28;20023;-79
2021/10/28 20:29:12;;;;;;;11.20;7.55;;;15.30;84.80;;;;;;5071192;28;20122;-79
2021/10/28 20:31:37;;;;;;;13.35;7.78;;;15.30;84.70;;;;;;5071402;28;20024;-79
2021/10/28 20:39:02;;;;;;;13.07;8.13;;;15.20;85.30;;;;;;5072522;28;20030;-80
2021/10/28 20:41:28;;;;;;;14.77;8.50;;;15.20;85.10;;;;;;5072504;28;20551;-79
2021/10/28 20:43:56;;;;;;;11.48;8.55;;;15.20;85.20;;;;;;5071237;28;20033;-80
2021/10/28 20:46:24;;;;;;;12.10;8.57;;;15.20;85.30;;;;;;5071155;28;20056;-79
2021/10/28 20:48:51;;;;;;;13.40;8.02;;;15.20;85.00;;;;;;5070915;28;20029;-79
2021/10/28 20:51:17;;;;;;;13.10;8.50;;;15.20;85.30;;;;;;5072409;28;20490;-80
2021/10/28 20:53:43;;;;;;;12.60;8.48;;;15.20;85.30;;;;;;5071052;28;20075;-79
2021/10/28 20:56:09;;;;;;;12.55;8.55;;;15.20;85.20;;;;;;5067400;28;20020;-79
2021/10/28 20:58:36;;;;;;;14.80;9.43;;;15.20;85.30;;;;;;5070780;28;20032;-79
2021/10/28 21:01:03;;;;;;;14.52;8.82;;;15.20;85.40;;;;;;5072094;28;20797;-79
2021/10/28 21:03:28;;;;;;;13.35;8.95;;;15.20;85.50;;;;;;5070984;28;20051;-79
2021/10/28 21:05:54;;;;;;;12.73;8.70;;;15.10;85.30;;;;;;5070621;28;20485;-80
2021/10/28 21:08:19;;;;;;;12.50;8.40;;;15.10;85.40;;;;;;5070890;28;20442;-79
2021/10/28 21:10:45;;;;;;;11.10;8.95;;;15.20;85.50;;;;;;5072006;28;20047;-79
2021/10/28 21:13:11;;;;;;;11.85;8.90;;;15.10;85.50;;;;;;5072125;28;20072;-80
2021/10/28 21:15:37;;;;;;;14.20;9.57;;;15.10;85.50;;;;;;5070945;28;20066;-80
2021/10/28 21:18:03;;;;;;;12.85;9.23;;;15.10;85.40;;;;;;5070898;28;20561;-80
2021/10/28 21:20:29;;;;;;;12.65;9.25;;;15.10;85.10;;;;;;5070771;28;20128;-79
2021/10/28 21:22:55;;;;;;;12.55;9.52;;;15.10;85.00;;;;;;5070802;28;20020;-79
2021/10/28 21:25:22;;;;;;;13.13;9.18;;;15.20;85.10;;;;;;5072257;28;20048;-79
2021/10/28 21:27:48;;;;;;;13.75;9.35;;;15.10;84.90;;;;;;5074568;28;20036;-79
2021/10/28 21:30:14;;;;;;;13.45;9.70;;;15.20;84.80;;;;;;5074492;28;20459;-79
2021/10/28 21:32:41;;;;;;;14.27;9.27;;;15.20;84.60;;;;;;5074425;28;20059;-80
2021/10/28 21:35:08;;;;;;;13.23;9.32;;;15.20;84.50;;;;;;5074609;28;20079;-78
2021/10/28 21:37:34;;;;;;;13.98;9.45;;;15.20;84.50;;;;;;5075553;28;20425;-79